Time;durP1;ratioP1;P1;durP2;ratioP2;P2;SDS_P1;SDS_P2;PMS_P1;PMS_P2;Temp;Humidity;BMP_temperature;BMP_pressure;BME280_temperature;BME280_humidity;BME280_pressure;Samples;Min_cycle;Max_cycle;Signal;HPM_P1;HPM_P2
2023/05/31 00:00:19;;;;;;;4.03;3.67;;;17.30;69.00;;;;;;5014298;28;20817;-75
2023/05/31 00:02:46;;;;;;;4.03;3.40;;;17.20;69.10;;;;;;4995845;28;20545;-74
2023/05/31 00:05:14;;;;;;;4.17;2.93;;;17.20;69.20;;;;;;4974910;28;20471;-75
2023/05/31 00:07:42;;;;;;;4.47;2.97;;;17.20;69.30;;;;;;4973990;28;20949;-75
2023/05/31 00:10:09;;;;;;;2.63;2.40;;;17.10;69.50;;;;;;5001417;28;20523;-74
2023/05/31 00:12:36;;;;;;;2.43;2.23;;;17.10;69.60;;;;;;5013787;28;20469;-74
2023/05/31 00:15:06;;;;;;;2.93;2.40;;;17.10;69.50;;;;;;5010560;28;20471;-75
2023/05/31 00:17:33;;;;;;;4.00;2.70;;;17.00;69.70;;;;;;4993389;28;20470;-75
2023/05/31 00:20:01;;;;;;;8.00;2.17;;;17.00;70.10;;;;;;4993418;28;20552;-75
2023/05/31 00:22:28;;;;;;;2.73;2.43;;;16.90;70.10;;;;;;4975500;28;20506;-76
2023/05/31 00:24:55;;;;;;;1.83;1.73;;;16.90;70.20;;;;;;4973448;28;20958;-75
2023/05/31 00:27:22;;;;;;;3.53;3.23;;;16.90;70.20;;;;;;4987789;28;20473;-75
2023/05/31 00:29:49;;;;;;;3.43;2.63;;;16.90;70.20;;;;;;5012336;28;20527;-75
2023/05/31 00:32:18;;;;;;;2.60;1.90;;;16.90;70.30;;;;;;5011865;28;20469;-76
2023/05/31 00:34:45;;;;;;;6.57;2.53;;;16.90;70.30;;;;;;5012375;28;20863;-76
2023/05/31 00:37:12;;;;;;;4.97;2.17;;;16.80;70.50;;;;;;5014088;28;20939;-76
2023/05/31 00:39:39;;;;;;;2.23;1.73;;;16.80;70.60;;;;;;5009373;28;20876;-76
2023/05/31 00:42:07;;;;;;;2.97;2.10;;;16.80;70.80;;;;;;4993972;28;20478;-77
2023/05/31 00:44:34;;;;;;;2.93;2.00;;;16.80;70.90;;;;;;4996662;28;20466;-76
2023/05/31 00:47:02;;;;;;;4.40;2.70;;;16.70;71.00;;;;;;4994223;28;20474;-76
2023/05/31 00:49:30;;;;;;;3.33;1.93;;;16.70;71.20;;;;;;4978501;28;20820;-75
2023/05/31 00:51:58;;;;;;;5.73;2.80;;;16.60;71.20;;;;;;4974158;28;20526;-77
2023/05/31 00:54:34;;;;;;;2.53;2.30;;;16.60;71.50;;;;;;4968100;28;20485;-76
2023/05/31 00:57:01;;;;;;;3.20;2.50;;;16.60;71.50;;;;;;5013589;28;20469;-75
2023/05/31 00:59:28;;;;;;;2.90;1.93;;;16.60;71.70;;;;;;5014980;28;20477;-75
2023/05/31 01:01:58;;;;;;;2.33;2.13;;;16.60;71.70;;;;;;5010535;28;20473;-76
2023/05/31 01:04:26;;;;;;;2.80;2.30;;;16.50;71.80;;;;;;4981223;28;20483;-75
2023/05/31 01:06:56;;;;;;;3.10;2.10;;;16.50;71.80;;;;;;4980941;28;20979;-75
2023/05/31 01:09:27;;;;;;;3.47;2.00;;;16.50;72.10;;;;;;4995330;28;20468;-75
2023/05/31 01:12:03;;;;;;;8.00;2.27;;;16.50;72.10;;;;;;5020867;28;20465;-75
2023/05/31 01:14:41;;;;;;;3.70;2.20;;;16.50;72.10;;;;;;4985384;28;20474;-75
2023/05/31 01:17:16;;;;;;;6.50;3.03;;;16.40;72.00;;;;;;4976678;28;20470;-75
2023/05/31 01:19:49;;;;;;;3.37;3.07;;;16.40;72.30;;;;;;4977763;28;20484;-75
2023/05/31 01:22:27;;;;;;;6.00;2.47;;;16.30;72.50;;;;;;4978547;28;20529;-75
2023/05/31 01:25:12;;;;;;;5.63;3.03;;;16.30;72.80;;;;;;4976172;28;20782;-75
2023/05/31 01:27:43;;;;;;;2.97;2.07;;;16.20;73.00;;;;;;4977014;28;20463;-75
2023/05/31 01:30:12;;;;;;;2.43;2.17;;;16.20;72.90;;;;;;4976913;28;20467;-75
2023/05/31 01:32:40;;;;;;;2.93;2.10;;;16.20;73.20;;;;;;4976917;28;20949;-76
2023/05/31 01:35:07;;;;;;;2.60;2.40;;;16.20;73.30;;;;;;4976449;28;20471;-75
2023/05/31 01:37:34;;;;;;;5.37;2.03;;;16.20;73.30;;;;;;4976219;28;20525;-76
2023/05/31 01:40:04;;;;;;;3.00;2.50;;;16.10;73.30;;;;;;4976321;28;20798;-76
2023/05/31 01:42:32;;;;;;;4.80;2.13;;;16.10;73.60;;;;;;4975885;28;20509;-76
2023/05/31 01:45:01;;;;;;;3.43;2.30;;;16.00;73.70;;;;;;4976505;28;20471;-76
2023/05/31 01:47:32;;;;;;;5.20;2.30;;;16.00;73.80;;;;;;4976646;28;20533;-76
2023/05/31 01:50:00;;;;;;;2.57;2.13;;;15.90;74.10;;;;;;4976344;28;20709;-76
2023/05/31 01:52:43;;;;;;;3.93;2.50;;;16.00;74.10;;;;;;4976633;28;20533;-76
2023/05/31 01:55:13;;;;;;;5.00;2.90;;;15.90;74.10;;;;;;4975891;28;20567;-76
2023/05/31 01:57:44;;;;;;;3.17;2.87;;;15.90;74.20;;;;;;4978283;28;20482;-75
2023/05/31 02:00:14;;;;;;;3.27;2.27;;;15.90;74.40;;;;;;4979014;28;20990;-76
2023/05/31 02:02:43;;;;;;;4.23;2.57;;;15.80;74.50;;;;;;4987421;28;20471;-75
2023/05/31 02:05:12;;;;;;;2.50;2.30;;;15.80;74.60;;;;;;4985943;28;20856;-76
2023/05/31 02:07:40;;;;;;;5.73;2.20;;;15.80;74.50;;;;;;4994958;28;20477;-75
2023/05/31 02:10:10;;;;;;;4.70;2.27;;;15.70;74.70;;;;;;4996517;28;20466;-76
2023/05/31 02:12:39;;;;;;;4.43;2.80;;;15.70;74.90;;;;;;4995439;28;20469;-75
2023/05/31 02:15:10;;;;;;;6.30;2.80;;;15.60;74.90;;;;;;4991227;28;20479;-76
2023/05/31 02:17:40;;;;;;;3.30;2.67;;;15.60;75.10;;;;;;4975876;28;20999;-76
2023/05/31 02:20:10;;;;;;;3.80;2.47;;;15.60;75.30;;;;;;4974941;28;20482;-76
2023/05/31 02:22:37;;;;;;;3.43;2.50;;;15.60;75.40;;;;;;4975471;28;20463;-76
2023/05/31 02:25:05;;;;;;;3.03;2.33;;;15.60;75.70;;;;;;4974499;28;20510;-75
2023/05/31 02:27:32;;;;;;;3.97;2.73;;;15.60;75.40;;;;;;4975354;28;20545;-75
2023/05/31 02:29:59;;;;;;;2.80;2.60;;;15.60;76.10;;;;;;4974158;28;20475;-76
2023/05/31 02:32:26;;;;;;;2.30;1.90;;;15.50;75.40;;;;;;4973466;28;20474;-76
2023/05/31 02:34:55;;;;;;;4.97;2.23;;;15.50;75.50;;;;;;4973456;28;20479;-76
2023/05/31 02:37:22;;;;;;;3.33;2.57;;;15.40;75.80;;;;;;4972724;28;20482;-75
2023/05/31 02:39:49;;;;;;;3.70;2.40;;;15.40;75.90;;;;;;4974757;28;20854;-75
2023/05/31 02:42:16;;;;;;;3.67;2.00;;;15.40;76.00;;;;;;4962605;28;20479;-75
2023/05/31 02:44:43;;;;;;;8.57;5.97;;;15.40;76.10;;;;;;4974559;28;20867;-75
2023/05/31 02:47:10;;;;;;;5.17;3.43;;;15.30;75.90;;;;;;4975097;28;21046;-75
2023/05/31 02:49:37;;;;;;;11.03;2.23;;;15.30;76.10;;;;;;4975806;28;20980;-75
2023/05/31 02:52:06;;;;;;;3.70;2.70;;;15.20;76.10;;;;;;4975635;28;20471;-76
2023/05/31 02:54:33;;;;;;;5.03;2.33;;;15.20;76.40;;;;;;4973749;28;20940;-76
2023/05/31 02:57:00;;;;;;;4.27;2.30;;;15.10;76.30;;;;;;4976037;28;20490;-75
2023/05/31 02:59:29;;;;;;;3.63;2.23;;;15.00;76.50;;;;;;4975147;28;21028;-75
2023/05/31 03:01:56;;;;;;;2.57;2.37;;;15.00;76.70;;;;;;4974218;28;20462;-75
2023/05/31 03:04:23;;;;;;;3.70;2.70;;;15.00;76.70;;;;;;4966100;28;20482;-75
2023/05/31 03:06:50;;;;;;;6.50;3.07;;;14.90;76.70;;;;;;4976148;28;20483;-75
2023/05/31 03:09:18;;;;;;;6.40;2.60;;;14.90;77.20;;;;;;4965553;28;20554;-76
2023/05/31 03:11:46;;;;;;;3.70;2.40;;;14.80;77.30;;;;;;4976052;28;20471;-75
2023/05/31 03:14:13;;;;;;;5.30;2.57;;;14.80;77.60;;;;;;4975282;28;20485;-75
2023/05/31 03:16:41;;;;;;;3.93;2.40;;;14.80;77.60;;;;;;4974496;28;20479;-75
2023/05/31 03:19:08;;;;;;;2.80;1.77;;;14.80;77.60;;;;;;4975667;28;20473;-76
2023/05/31 03:21:35;;;;;;;3.83;2.10;;;14.70;77.50;;;;;;4974279;28;20471;-76
2023/05/31 03:24:02;;;;;;;2.83;2.53;;;14.70;77.60;;;;;;4975145;28;20566;-75
2023/05/31 03:26:31;;;;;;;5.03;2.70;;;14.70;77.50;;;;;;4974596;28;20471;-76
2023/05/31 03:28:58;;;;;;;3.00;2.40;;;14.60;78.30;;;;;;4975194;28;20816;-75
2023/05/31 03:31:29;;;;;;;7.33;2.30;;;14.70;77.60;;;;;;4974506;28;20511;-75
2023/05/31 03:33:57;;;;;;;3.57;2.47;;;14.70;77.70;;;;;;4975528;28;20549;-76
2023/05/31 03:36:24;;;;;;;4.17;2.73;;;14.70;77.60;;;;;;4974189;28;20562;-75
2023/05/31 03:38:51;;;;;;;4.77;3.37;;;14.70;77.80;;;;;;4975343;28;21035;-75
2023/05/31 03:41:18;;;;;;;4.13;2.30;;;14.60;77.80;;;;;;4975126;28;20984;-75
2023/05/31 03:43:47;;;;;;;4.30;2.67;;;14.70;77.90;;;;;;4974361;28;20533;-75
2023/05/31 03:46:17;;;;;;;3.97;2.30;;;14.70;78.00;;;;;;4974868;28;20876;-75
2023/05/31 03:48:44;;;;;;;3.27;2.37;;;14.70;77.90;;;;;;4973915;28;20462;-76
2023/05/31 03:51:11;;;;;;;3.20;2.30;;;14.70;78.00;;;;;;4974703;28;20475;-75
2023/05/31 03:53:38;;;;;;;4.87;2.90;;;14.70;78.20;;;;;;4974560;28;20471;-75
2023/05/31 03:56:08;;;;;;;3.20;2.50;;;14.70;78.30;;;;;;4974253;28;20529;-75
2023/05/31 03:58:36;;;;;;;6.40;3.40;;;14.60;78.00;;;;;;4974176;28;20984;-75
2023/05/31 04:01:06;;;;;;;8.27;3.10;;;14.70;78.10;;;;;;4975140;28;21001;-76
2023/05/31 04:03:33;;;;;;;3.33;3.03;;;14.70;78.00;;;;;;4974359;28;20482;-75
2023/05/31 04:06:02;;;;;;;4.67;2.13;;;14.70;78.10;;;;;;4974235;28;20977;-75
2023/05/31 04:08:28;;;;;;;4.53;2.97;;;14.70;78.40;;;;;;4963994;28;20582;-75
2023/05/31 04:11:02;;;;;;;4.80;2.50;;;14.70;78.30;;;;;;4966877;28;20467;-75
2023/05/31 04:13:31;;;;;;;4.70;2.90;;;14.70;78.40;;;;;;4974311;28;20481;-76
2023/05/31 04:15:58;;;;;;;3.93;2.90;;;14.80;78.30;;;;;;4974535;28;20478;-75
2023/05/31 04:18:27;;;;;;;8.43;3.03;;;14.80;78.60;;;;;;4974376;28;20798;-75
2023/05/31 04:20:54;;;;;;;3.67;2.97;;;14.80;78.30;;;;;;4973377;28;20466;-75
2023/05/31 04:23:21;;;;;;;7.13;2.93;;;14.80;78.50;;;;;;4974027;28;20870;-75
2023/05/31 04:25:48;;;;;;;5.27;2.60;;;14.80;78.70;;;;;;4974086;28;20479;-76
2023/05/31 04:28:18;;;;;;;4.30;2.67;;;14.80;78.80;;;;;;4974275;28;20471;-75
2023/05/31 04:30:46;;;;;;;5.50;3.43;;;14.80;78.80;;;;;;4973795;28;20529;-75
2023/05/31 04:33:13;;;;;;;4.20;3.27;;;14.80;78.80;;;;;;4974879;28;20459;-75
2023/05/31 04:35:42;;;;;;;4.03;2.93;;;14.80;78.80;;;;;;4973383;28;20483;-76
2023/05/31 04:38:09;;;;;;;4.10;2.40;;;14.90;78.80;;;;;;4974061;28;20541;-75
2023/05/31 04:40:40;;;;;;;6.13;3.57;;;14.90;78.60;;;;;;4974239;28;20471;-75
2023/05/31 04:43:09;;;;;;;3.33;2.97;;;15.00;78.70;;;;;;4973731;28;20483;-75
2023/05/31 04:45:37;;;;;;;3.97;2.60;;;15.00;78.40;;;;;;4973440;28;20478;-75
2023/05/31 04:48:05;;;;;;;2.97;2.63;;;15.10;78.40;;;;;;4974726;28;20478;-75
2023/05/31 04:50:33;;;;;;;2.93;2.70;;;15.10;78.20;;;;;;4973139;28;20976;-75
2023/05/31 04:53:02;;;;;;;3.30;2.63;;;15.20;78.00;;;;;;4973529;28;20462;-76
2023/05/31 04:55:29;;;;;;;3.43;2.67;;;15.30;77.80;;;;;;4974122;28;20482;-75
2023/05/31 04:57:56;;;;;;;3.60;2.73;;;15.30;77.70;;;;;;4973659;28;20462;-76
2023/05/31 05:00:23;;;;;;;3.93;2.77;;;15.40;77.60;;;;;;4973841;28;20972;-75
2023/05/31 05:02:50;;;;;;;3.40;3.03;;;15.40;77.30;;;;;;4973130;28;20551;-75
2023/05/31 05:05:17;;;;;;;3.73;2.47;;;15.50;77.30;;;;;;4973703;28;20510;-75
2023/05/31 05:07:44;;;;;;;3.13;2.50;;;15.60;77.10;;;;;;4974699;28;20470;-75
2023/05/31 05:10:13;;;;;;;5.83;3.73;;;15.60;76.80;;;;;;4975125;28;20478;-75
2023/05/31 05:12:40;;;;;;;5.60;3.00;;;15.60;76.70;;;;;;4973744;28;20475;-75
2023/05/31 05:15:09;;;;;;;5.60;3.43;;;15.70;76.60;;;;;;4973962;28;20478;-75
2023/05/31 05:17:36;;;;;;;6.53;3.20;;;15.70;76.40;;;;;;4975563;28;20913;-76
2023/05/31 05:20:10;;;;;;;5.37;3.90;;;15.80;76.40;;;;;;4942310;28;20479;-76
2023/05/31 05:22:37;;;;;;;6.80;3.70;;;15.90;76.30;;;;;;4973174;28;20474;-76
2023/05/31 05:25:04;;;;;;;3.70;2.93;;;15.90;75.80;;;;;;4972426;28;20467;-76
2023/05/31 05:27:33;;;;;;;4.33;2.67;;;16.00;75.70;;;;;;4973653;28;20877;-76
2023/05/31 05:30:00;;;;;;;3.93;2.50;;;16.00;75.60;;;;;;4973535;28;20471;-75
2023/05/31 05:32:27;;;;;;;4.60;3.17;;;16.10;75.60;;;;;;4972850;28;20499;-75
2023/05/31 05:34:57;;;;;;;3.93;2.60;;;16.20;75.60;;;;;;4973382;28;20541;-75
2023/05/31 05:37:24;;;;;;;6.47;2.87;;;16.30;75.60;;;;;;4972905;28;20486;-76
2023/05/31 05:39:51;;;;;;;3.00;2.50;;;16.30;75.40;;;;;;4964064;28;20506;-75
2023/05/31 05:42:19;;;;;;;3.80;2.60;;;16.40;75.40;;;;;;4972925;28;20481;-76
2023/05/31 05:44:47;;;;;;;4.57;2.00;;;16.50;75.40;;;;;;4973291;28;21041;-76
2023/05/31 05:47:14;;;;;;;2.73;2.10;;;16.60;75.20;;;;;;4973578;28;20811;-76
2023/05/31 05:49:41;;;;;;;3.70;1.90;;;16.70;75.00;;;;;;4973473;28;20503;-75
2023/05/31 05:52:08;;;;;;;3.40;2.57;;;16.70;74.70;;;;;;4976977;28;20475;-76
2023/05/31 05:54:36;;;;;;;3.27;3.00;;;16.80;74.70;;;;;;4966723;28;20470;-76
2023/05/31 05:57:04;;;;;;;5.93;3.70;;;16.80;74.40;;;;;;4976206;28;20485;-76
2023/05/31 05:59:31;;;;;;;4.80;3.40;;;16.90;74.30;;;;;;4976963;28;20517;-75
2023/05/31 06:04:40;;;;;;;3.93;2.90;;;17.10;73.80;;;;;;4974510;28;20796;-76
2023/05/31 06:07:07;;;;;;;4.20;2.80;;;17.20;73.60;;;;;;4975270;28;20482;-75
2023/05/31 06:09:36;;;;;;;3.90;3.13;;;17.30;73.50;;;;;;4976909;28;20853;-76
2023/05/31 06:12:03;;;;;;;4.03;2.83;;;17.40;73.40;;;;;;4966124;28;20817;-76
2023/05/31 06:14:30;;;;;;;4.23;2.70;;;17.50;73.70;;;;;;4976580;28;20463;-76
2023/05/31 06:16:59;;;;;;;2.43;2.20;;;17.70;73.20;;;;;;4975463;28;20529;-76
2023/05/31 06:19:28;;;;;;;4.20;3.43;;;17.80;72.60;;;;;;4976204;28;20546;-75
2023/05/31 06:21:57;;;;;;;3.67;2.50;;;17.90;72.20;;;;;;4976882;28;20502;-76
2023/05/31 06:24:25;;;;;;;3.43;2.63;;;18.00;72.10;;;;;;4974932;28;20853;-75
2023/05/31 06:26:53;;;;;;;5.30;2.80;;;18.10;72.00;;;;;;4976731;28;20483;-74
2023/05/31 06:29:21;;;;;;;3.73;3.40;;;18.20;72.20;;;;;;4977094;28;20537;-74
2023/05/31 06:31:48;;;;;;;3.43;3.13;;;18.30;71.80;;;;;;4976913;28;20495;-75
2023/05/31 06:34:16;;;;;;;7.23;2.87;;;18.40;71.60;;;;;;4976717;28;20470;-76
2023/05/31 06:36:46;;;;;;;5.83;2.87;;;18.50;71.50;;;;;;4977172;28;20478;-75
2023/05/31 06:39:13;;;;;;;4.10;3.53;;;18.60;71.40;;;;;;4977234;28;20535;-75
2023/05/31 06:41:40;;;;;;;4.00;3.23;;;18.70;71.10;;;;;;4978782;28;20483;-75
2023/05/31 06:44:07;;;;;;;4.83;2.63;;;18.80;70.50;;;;;;4975970;28;20525;-75
2023/05/31 06:46:35;;;;;;;5.90;2.87;;;19.00;70.50;;;;;;4976407;28;20490;-76
2023/05/31 06:49:02;;;;;;;4.77;3.03;;;19.10;70.20;;;;;;4975737;28;20553;-76
2023/05/31 06:51:30;;;;;;;3.37;2.70;;;19.30;70.00;;;;;;4975457;28;20926;-76
2023/05/31 06:53:58;;;;;;;3.80;2.97;;;19.50;69.90;;;;;;4975429;28;20554;-76
2023/05/31 06:56:29;;;;;;;10.80;5.10;;;19.70;69.60;;;;;;4974712;28;20479;-75
2023/05/31 06:58:56;;;;;;;7.00;4.60;;;19.90;70.20;;;;;;4975371;28;20471;-76
2023/05/31 07:01:26;;;;;;;6.40;3.90;;;20.10;69.90;;;;;;4974084;28;20536;-76
2023/05/31 07:03:55;;;;;;;6.07;3.10;;;20.30;69.50;;;;;;4977816;28;20551;-76
2023/05/31 07:06:23;;;;;;;7.60;3.30;;;20.50;68.80;;;;;;4975184;28;20481;-76
2023/05/31 07:08:51;;;;;;;6.07;3.53;;;20.70;68.00;;;;;;4974658;28;20483;-75
2023/05/31 07:11:19;;;;;;;3.10;2.50;;;20.90;67.80;;;;;;4973682;28;20868;-76
2023/05/31 07:13:46;;;;;;;4.83;3.23;;;21.10;67.50;;;;;;4974416;28;20478;-76
2023/05/31 07:16:15;;;;;;;7.00;3.10;;;21.30;67.20;;;;;;4974343;28;20491;-75
2023/05/31 07:18:43;;;;;;;7.27;4.30;;;21.40;65.70;;;;;;4979137;28;20447;-76
2023/05/31 07:21:10;;;;;;;2.93;2.63;;;21.50;65.20;;;;;;4974379;28;20550;-76
2023/05/31 07:23:37;;;;;;;3.50;2.70;;;21.60;65.10;;;;;;4975379;28;20873;-76
2023/05/31 07:26:06;;;;;;;6.53;3.23;;;21.80;65.10;;;;;;4974052;28;20557;-76
2023/05/31 07:28:33;;;;;;;5.77;3.20;;;21.90;63.80;;;;;;4975278;28;20471;-76
2023/05/31 07:31:00;;;;;;;4.67;2.93;;;22.10;63.50;;;;;;4974350;28;20812;-76
2023/05/31 07:33:27;;;;;;;4.23;2.97;;;22.30;63.00;;;;;;4974487;28;20578;-77
2023/05/31 07:35:54;;;;;;;4.37;3.10;;;22.50;63.00;;;;;;4974156;28;20490;-77
2023/05/31 07:38:21;;;;;;;4.47;2.70;;;22.70;62.50;;;;;;4974304;28;20577;-76
2023/05/31 07:40:48;;;;;;;5.83;3.00;;;22.90;61.70;;;;;;4974521;28;20659;-76
2023/05/31 07:43:20;;;;;;;6.10;3.37;;;23.00;60.70;;;;;;4974041;28;20462;-76
2023/05/31 07:45:47;;;;;;;6.30;3.60;;;23.20;60.20;;;;;;4973611;28;20814;-76
2023/05/31 07:48:15;;;;;;;5.70;3.27;;;23.40;59.90;;;;;;4973853;28;20532;-76
2023/05/31 07:50:41;;;;;;;4.90;3.43;;;23.50;59.20;;;;;;4974189;28;20487;-76
2023/05/31 07:53:08;;;;;;;7.20;3.27;;;23.60;58.50;;;;;;4962850;28;20560;-77
2023/05/31 07:55:36;;;;;;;3.70;3.10;;;23.60;58.00;;;;;;4974221;28;20471;-77
2023/05/31 07:58:06;;;;;;;4.03;3.27;;;23.60;57.90;;;;;;4973755;28;20486;-76
2023/05/31 08:00:35;;;;;;;4.53;3.70;;;23.70;57.80;;;;;;4974111;28;20467;-76
2023/05/31 08:03:02;;;;;;;4.20;3.00;;;23.70;57.30;;;;;;4973454;28;20472;-76
2023/05/31 08:05:29;;;;;;;3.57;2.40;;;23.80;56.80;;;;;;4973496;28;20957;-77
2023/05/31 08:07:57;;;;;;;6.33;3.10;;;23.80;56.70;;;;;;4973813;28;20538;-77
2023/05/31 08:10:27;;;;;;;3.00;2.20;;;23.90;56.80;;;;;;4973411;28;20505;-76
2023/05/31 08:12:54;;;;;;;4.33;2.90;;;24.00;56.30;;;;;;4973596;28;20804;-76
2023/05/31 08:15:21;;;;;;;3.30;2.40;;;24.00;55.50;;;;;;4973211;28;20478;-76
2023/05/31 08:18:18;;;;;;;4.57;3.20;;;24.10;55.80;;;;;;4973916;28;20542;-76
2023/05/31 08:20:50;;;;;;;5.30;3.53;;;24.20;55.70;;;;;;4974792;28;20497;-76
2023/05/31 08:23:23;;;;;;;2.83;2.50;;;24.30;54.40;;;;;;4973141;28;20809;-76
2023/05/31 08:25:50;;;;;;;5.60;5.10;;;24.30;54.00;;;;;;4974157;28;20532;-76
2023/05/31 08:28:17;;;;;;;5.13;3.03;;;24.30;53.70;;;;;;4973547;28;20602;-76
2023/05/31 08:30:45;;;;;;;2.10;1.90;;;24.40;54.10;;;;;;4973899;28;20466;-76
2023/05/31 08:33:12;;;;;;;4.10;3.70;;;24.50;53.90;;;;;;4973735;28;20481;-76
2023/05/31 08:35:42;;;;;;;4.83;3.83;;;24.50;54.10;;;;;;4973668;28;20493;-76
2023/05/31 08:38:11;;;;;;;3.93;2.50;;;24.60;54.10;;;;;;4973436;28;20470;-76
2023/05/31 08:40:39;;;;;;;5.23;2.10;;;24.60;53.50;;;;;;4974023;28;20562;-75
2023/05/31 08:43:15;;;;;;;2.10;1.90;;;24.60;52.30;;;;;;4972844;28;20944;-75
2023/05/31 08:45:43;;;;;;;4.57;4.13;;;24.60;52.60;;;;;;4973969;28;20549;-75
2023/05/31 08:48:15;;;;;;;2.40;2.20;;;24.60;53.00;;;;;;4973339;28;20474;-75
2023/05/31 08:50:43;;;;;;;4.90;2.77;;;24.70;52.10;;;;;;4963893;28;20566;-75
2023/05/31 08:53:12;;;;;;;2.30;1.90;;;24.70;52.10;;;;;;4973646;28;20470;-75
2023/05/31 08:55:42;;;;;;;3.47;2.37;;;24.70;51.60;;;;;;4974022;28;20542;-74
2023/05/31 08:58:10;;;;;;;6.93;2.53;;;24.70;51.40;;;;;;4973582;28;20463;-75
2023/05/31 09:00:37;;;;;;;5.03;3.33;;;24.50;51.50;;;;;;4973738;28;20561;-76
2023/05/31 09:03:07;;;;;;;5.37;4.90;;;24.50;51.80;;;;;;4973403;28;20984;-75
2023/05/31 09:05:34;;;;;;;4.33;2.60;;;24.30;51.90;;;;;;4974023;28;20475;-75
2023/05/31 09:08:01;;;;;;;3.30;3.00;;;24.30;51.00;;;;;;4972840;28;20506;-75
2023/05/31 09:10:30;;;;;;;3.03;2.73;;;24.20;49.90;;;;;;4973648;28;20560;-76
2023/05/31 09:12:58;;;;;;;2.90;2.03;;;24.30;50.10;;;;;;4974221;28;20463;-76
2023/05/31 09:15:27;;;;;;;2.50;1.93;;;24.30;50.10;;;;;;4972419;28;20462;-76
2023/05/31 09:17:56;;;;;;;4.43;2.40;;;24.30;50.70;;;;;;4973738;28;20471;-77
2023/05/31 09:20:33;;;;;;;4.73;2.30;;;24.20;50.50;;;;;;4973231;28;20517;-76
2023/05/31 09:23:08;;;;;;;3.60;2.80;;;24.30;50.30;;;;;;4973870;28;20478;-76
2023/05/31 09:25:47;;;;;;;3.03;2.47;;;24.30;50.70;;;;;;4975420;28;20476;-76
2023/05/31 09:28:14;;;;;;;3.90;2.70;;;24.30;51.20;;;;;;4977058;28;20979;-76
2023/05/31 09:30:43;;;;;;;2.60;2.40;;;24.30;50.60;;;;;;4977703;28;20868;-76
2023/05/31 09:33:10;;;;;;;2.00;1.90;;;24.30;50.60;;;;;;4967142;28;20470;-76
2023/05/31 09:35:37;;;;;;;4.03;1.90;;;24.20;49.90;;;;;;4976473;28;20486;-77
2023/05/31 09:38:08;;;;;;;4.10;2.57;;;24.20;48.80;;;;;;4977486;28;20565;-77
2023/05/31 09:40:35;;;;;;;2.23;2.03;;;24.20;48.80;;;;;;4977304;28;20463;-76
2023/05/31 09:43:08;;;;;;;3.50;2.43;;;24.10;49.00;;;;;;4977957;28;20467;-76
2023/05/31 09:45:35;;;;;;;4.37;3.97;;;24.10;48.80;;;;;;4968413;28;20481;-75
2023/05/31 09:48:02;;;;;;;4.50;2.60;;;24.10;48.30;;;;;;4978616;28;20873;-76
2023/05/31 09:50:29;;;;;;;2.60;2.10;;;24.20;46.90;;;;;;4969706;28;20533;-73
2023/05/31 09:52:58;;;;;;;2.60;2.10;;;24.10;46.90;;;;;;4977156;28;20475;-73
2023/05/31 09:55:41;;;;;;;3.53;3.10;;;24.20;47.30;;;;;;4976933;28;20817;-75
2023/05/31 09:58:09;;;;;;;3.20;2.90;;;24.20;47.50;;;;;;4978565;28;20462;-75
2023/05/31 10:00:45;;;;;;;3.13;2.87;;;24.10;47.30;;;;;;4980791;28;20574;-75
2023/05/31 10:03:12;;;;;;;3.13;2.83;;;24.10;47.40;;;;;;4980887;28;20550;-76
2023/05/31 10:05:40;;;;;;;4.20;3.80;;;24.20;45.90;;;;;;4979335;28;20487;-75
2023/05/31 10:08:07;;;;;;;4.40;4.00;;;24.20;46.30;;;;;;4979758;28;20537;-74
2023/05/31 10:10:34;;;;;;;3.50;2.93;;;24.10;46.30;;;;;;4977391;28;20831;-76
2023/05/31 10:13:03;;;;;;;2.83;2.63;;;24.10;46.40;;;;;;4977057;28;20497;-76
2023/05/31 10:15:32;;;;;;;4.50;4.10;;;24.20;47.00;;;;;;4977856;28;20983;-77
2023/05/31 10:18:02;;;;;;;3.73;3.37;;;24.20;47.60;;;;;;4978116;28;20465;-75
2023/05/31 10:20:33;;;;;;;3.77;3.33;;;24.30;48.40;;;;;;4976702;28;20471;-77
2023/05/31 10:23:06;;;;;;;3.50;3.00;;;24.30;48.70;;;;;;4967570;28;20474;-76
2023/05/31 10:25:41;;;;;;;2.90;2.10;;;24.30;48.90;;;;;;4976377;28;20475;-76
2023/05/31 10:28:12;;;;;;;3.50;3.20;;;24.40;48.30;;;;;;4977735;28;20956;-76
2023/05/31 10:30:44;;;;;;;2.67;2.27;;;24.50;48.60;;;;;;4976742;28;20976;-75
2023/05/31 10:33:17;;;;;;;4.50;3.40;;;24.50;48.50;;;;;;4978374;28;20534;-76
2023/05/31 10:35:46;;;;;;;3.63;2.33;;;24.60;49.60;;;;;;4976913;28;20991;-75
2023/05/31 10:38:14;;;;;;;2.40;2.20;;;24.60;48.50;;;;;;4977112;28;20996;-75
2023/05/31 10:40:49;;;;;;;2.30;2.10;;;24.70;48.10;;;;;;4976716;28;20471;-76
2023/05/31 10:43:24;;;;;;;4.10;3.17;;;24.70;48.50;;;;;;4976971;28;21004;-77
2023/05/31 10:46:02;;;;;;;6.23;3.20;;;24.70;48.40;;;;;;4973796;28;20936;-74
2023/05/31 10:48:39;;;;;;;3.93;2.30;;;24.70;48.40;;;;;;4975560;28;20474;-75
2023/05/31 10:51:06;;;;;;;4.07;2.30;;;24.70;48.10;;;;;;4976531;28;21024;-75
2023/05/31 10:53:38;;;;;;;2.27;2.00;;;24.70;47.40;;;;;;4975082;28;20467;-76
2023/05/31 10:56:10;;;;;;;2.30;2.03;;;24.70;47.30;;;;;;4976127;28;20475;-75
2023/05/31 10:58:39;;;;;;;2.20;2.00;;;24.70;46.80;;;;;;4975557;28;20482;-75
2023/05/31 11:01:11;;;;;;;2.53;1.43;;;24.70;46.70;;;;;;4966788;28;20479;-75
2023/05/31 11:03:45;;;;;;;2.23;2.00;;;24.80;46.00;;;;;;4974493;28;20475;-75
2023/05/31 11:06:14;;;;;;;3.07;1.83;;;24.70;45.70;;;;;;4975608;28;20470;-76
2023/05/31 11:08:57;;;;;;;4.30;3.87;;;24.80;46.10;;;;;;4975067;28;20961;-77
2023/05/31 11:11:29;;;;;;;3.93;2.47;;;24.80;47.10;;;;;;4975447;28;20475;-77
2023/05/31 11:13:57;;;;;;;2.67;1.37;;;24.80;47.30;;;;;;4974382;28;20474;-75
2023/05/31 11:16:26;;;;;;;1.90;1.50;;;24.80;46.50;;;;;;4975137;28;20479;-76
2023/05/31 11:19:04;;;;;;;3.00;2.67;;;24.80;45.80;;;;;;4975195;28;20558;-75
2023/05/31 11:21:51;;;;;;;1.50;1.20;;;24.80;46.20;;;;;;4975181;28;20787;-76
2023/05/31 11:24:31;;;;;;;3.93;1.90;;;24.90;45.60;;;;;;4975437;28;20462;-76
2023/05/31 11:27:00;;;;;;;2.13;1.50;;;24.80;45.60;;;;;;4975075;28;20505;-75
2023/05/31 11:29:52;;;;;;;1.30;1.10;;;24.80;45.90;;;;;;4974557;28;20467;-75
2023/05/31 11:32:22;;;;;;;1.33;1.23;;;24.80;46.10;;;;;;4974381;28;20854;-77
2023/05/31 11:34:53;;;;;;;1.50;1.27;;;24.80;46.10;;;;;;4975007;28;20999;-75
2023/05/31 11:37:21;;;;;;;2.77;2.27;;;24.80;45.90;;;;;;4974365;28;20821;-75
2023/05/31 11:39:49;;;;;;;2.70;2.23;;;24.80;46.20;;;;;;4974378;28;20485;-76
2023/05/31 11:42:17;;;;;;;2.10;1.90;;;24.80;47.00;;;;;;4975079;28;20470;-75
2023/05/31 11:44:46;;;;;;;2.00;1.80;;;24.80;47.20;;;;;;4974843;28;20455;-75
2023/05/31 11:47:19;;;;;;;1.77;1.27;;;24.80;47.00;;;;;;4974805;28;20483;-74
2023/05/31 11:49:47;;;;;;;2.20;1.33;;;24.90;46.60;;;;;;4974399;28;20509;-75
2023/05/31 11:52:16;;;;;;;2.70;1.23;;;24.90;46.00;;;;;;4975062;28;20475;-75
2023/05/31 11:54:45;;;;;;;3.50;3.20;;;24.90;46.30;;;;;;4974062;28;20473;-76
2023/05/31 11:57:13;;;;;;;1.93;1.83;;;24.90;46.30;;;;;;4975137;28;20554;-75
2023/05/31 11:59:41;;;;;;;1.67;1.43;;;24.90;47.20;;;;;;4974297;28;20997;-75
2023/05/31 12:02:10;;;;;;;3.10;1.57;;;24.90;47.10;;;;;;4974244;28;20899;-74
2023/05/31 12:04:38;;;;;;;2.27;1.40;;;24.90;47.10;;;;;;4973827;28;20968;-74
2023/05/31 12:07:08;;;;;;;1.90;1.80;;;24.90;47.30;;;;;;4974541;28;20486;-76
2023/05/31 12:09:35;;;;;;;1.07;0.97;;;25.00;47.60;;;;;;4973768;28;20972;-74
2023/05/31 12:12:05;;;;;;;8.17;2.30;;;25.00;47.50;;;;;;4974314;28;20819;-74
2023/05/31 12:14:32;;;;;;;2.60;1.70;;;25.00;47.20;;;;;;4973689;28;20525;-73
2023/05/31 12:17:03;;;;;;;1.83;1.43;;;25.00;47.60;;;;;;4974182;28;20533;-76
2023/05/31 12:19:30;;;;;;;1.30;1.20;;;25.00;47.90;;;;;;4973495;28;20471;-75
2023/05/31 12:21:57;;;;;;;1.17;1.07;;;25.00;47.60;;;;;;4974278;28;20546;-76
2023/05/31 12:24:26;;;;;;;2.63;1.33;;;25.00;47.70;;;;;;4973349;28;20629;-75
2023/05/31 12:26:55;;;;;;;1.53;1.43;;;25.00;47.60;;;;;;4973954;28;20830;-76
2023/05/31 12:29:28;;;;;;;4.17;1.97;;;25.00;47.40;;;;;;4963945;28;20481;-76
2023/05/31 12:32:02;;;;;;;1.60;1.03;;;25.00;46.80;;;;;;4973210;28;20467;-76
2023/05/31 12:34:30;;;;;;;2.47;2.13;;;25.00;46.20;;;;;;4974182;28;20516;-75
2023/05/31 12:36:58;;;;;;;1.67;1.00;;;25.00;45.60;;;;;;4972202;28;20476;-75
2023/05/31 12:39:26;;;;;;;1.40;1.30;;;25.00;45.50;;;;;;4974198;28;20482;-75
2023/05/31 12:41:53;;;;;;;2.07;1.87;;;25.00;45.80;;;;;;4973275;28;20533;-76
2023/05/31 12:44:22;;;;;;;1.70;1.60;;;25.00;45.70;;;;;;4963977;28;20479;-76
2023/05/31 12:46:52;;;;;;;1.83;1.20;;;25.00;45.40;;;;;;4972231;28;20482;-76
2023/05/31 12:49:23;;;;;;;1.50;1.40;;;25.00;44.40;;;;;;4973728;28;20529;-74
2023/05/31 12:51:57;;;;;;;1.40;1.30;;;25.00;43.90;;;;;;4973232;28;20980;-75
2023/05/31 12:54:31;;;;;;;1.70;1.10;;;25.00;44.10;;;;;;4973986;28;20602;-75
2023/05/31 12:57:01;;;;;;;2.83;1.63;;;25.00;43.80;;;;;;4973114;28;20466;-76
2023/05/31 12:59:28;;;;;;;1.77;1.60;;;25.00;43.60;;;;;;4973795;28;20478;-75